Time;durP1;ratioP1;P1;durP2;ratioP2;P2;SDS_P1;SDS_P2;PMS_P1;PMS_P2;Temp;Humidity;BMP_temperature;BMP_pressure;BME280_temperature;BME280_humidity;BME280_pressure;Samples;Min_cycle;Max_cycle;Signal;HPM_P1;HPM_P2
2021/07/21 00:02:19;;;;;;;10.57;5.55;;;;;;;;;;5031435;28;20085;-87
2021/07/21 00:04:45;;;;;;;13.77;5.85;;;;;;;;;;5033888;28;20060;-85
2021/07/21 00:07:14;;;;;;;10.82;6.40;;;;;;;;;;5031923;28;20106;-84
2021/07/21 00:09:39;;;;;;;9.95;6.47;;;;;;;;;;5031146;28;20026;-86
2021/07/21 00:14:49;;;;;;;11.18;6.75;;;;;;;;;;5030424;28;20057;-85
2021/07/21 00:17:20;;;;;;;9.65;5.85;;;;;;;;;;5028538;28;20026;-85
2021/07/21 00:20:05;;;;;;;9.65;6.05;;;;;;;;;;5029030;28;20025;-84
2021/07/21 00:22:40;;;;;;;10.30;6.15;;;;;;;;;;5030730;28;20037;-86
2021/07/21 00:25:09;;;;;;;11.70;6.60;;;;;;;;;;5030824;28;20026;-86
2021/07/21 00:27:35;;;;;;;14.13;6.85;;;;;;;;;;5029227;28;20053;-85
2021/07/21 00:30:01;;;;;;;11.63;6.85;;;;;;;;;;5028234;28;20033;-86
2021/07/21 00:32:27;;;;;;;10.23;6.95;;;;;;;;;;5029271;28;20038;-84
2021/07/21 00:34:52;;;;;;;9.95;6.32;;;;;;;;;;5028868;28;20021;-85
2021/07/21 00:37:17;;;;;;;10.93;6.97;;;;;;;;;;5028872;28;20021;-86
2021/07/21 00:39:43;;;;;;;9.30;6.35;;;;;;;;;;5029087;28;20038;-85
2021/07/21 00:42:08;;;;;;;10.45;6.72;;;;;;;;;;5027517;28;20428;-85
2021/07/21 00:44:34;;;;;;;11.50;7.60;;;;;;;;;;5026975;28;20033;-84
2021/07/21 00:47:00;;;;;;;11.77;7.35;;;;;;;;;;5027913;28;20033;-86
2021/07/21 00:49:26;;;;;;;12.10;7.25;;;;;;;;;;5027255;28;20040;-86
2021/07/21 00:51:52;;;;;;;11.27;6.68;;;;;;;;;;5028409;28;20021;-84
2021/07/21 00:54:17;;;;;;;11.55;7.22;;;;;;;;;;5027565;28;20025;-86
2021/07/21 00:56:43;;;;;;;12.68;7.30;;;;;;;;;;5025444;28;20397;-84
2021/07/21 00:59:08;;;;;;;14.00;6.93;;;;;;;;;;5026188;28;20081;-84
2021/07/21 01:01:34;;;;;;;11.23;6.70;;;;;;;;;;5024477;28;20374;-85
2021/07/21 01:04:03;;;;;;;10.68;7.38;;;;;;;;;;5022765;28;20029;-84
2021/07/21 01:06:29;;;;;;;13.05;6.90;;;;;;;;;;5028899;28;20037;-84
2021/07/21 01:08:54;;;;;;;12.70;6.65;;;;;;;;;;5025387;28;20022;-84
2021/07/21 01:11:28;;;;;;;10.98;6.65;;;;;;;;;;5023900;28;20097;-84
2021/07/21 01:14:08;;;;;;;9.82;6.25;;;;;;;;;;5024843;28;20057;-86
2021/07/21 01:16:36;;;;;;;11.18;6.35;;;;;;;;;;5024133;28;20028;-84
2021/07/21 01:19:22;;;;;;;9.40;6.82;;;;;;;;;;5024197;28;20085;-84
2021/07/21 01:22:14;;;;;;;10.88;6.93;;;;;;;;;;5032036;28;20560;-85
2021/07/21 01:25:03;;;;;;;11.40;6.85;;;;;;;;;;5032188;28;20018;-87
2021/07/21 01:27:31;;;;;;;14.60;6.75;;;;;;;;;;5025913;28;20030;-85
2021/07/21 01:30:06;;;;;;;12.23;6.95;;;;;;;;;;5026554;28;20495;-85
2021/07/21 01:32:32;;;;;;;10.55;6.38;;;;;;;;;;5025992;28;20153;-86
2021/07/21 01:35:06;;;;;;;12.23;6.82;;;;;;;;;;5025852;28;20046;-85
2021/07/21 01:37:33;;;;;;;10.80;6.90;;;;;;;;;;5023631;28;20024;-85
2021/07/21 01:40:03;;;;;;;12.35;6.72;;;;;;;;;;5024991;28;20037;-86
2021/07/21 01:42:30;;;;;;;12.82;7.07;;;;;;;;;;5025773;28;20029;-84
2021/07/21 01:44:57;;;;;;;10.43;6.90;;;;;;;;;;5024813;28;20030;-86
2021/07/21 01:47:23;;;;;;;11.20;6.82;;;;;;;;;;5024020;28;20108;-86
2021/07/21 01:49:52;;;;;;;10.13;7.22;;;;;;;;;;5024112;28;20022;-85
2021/07/21 01:52:24;;;;;;;14.27;8.32;;;;;;;;;;5024429;28;20026;-85
2021/07/21 01:54:50;;;;;;;12.55;7.72;;;;;;;;;;5025050;28;20026;-84
2021/07/21 01:57:16;;;;;;;13.75;7.35;;;;;;;;;;5025174;28;20022;-84
2021/07/21 01:59:46;;;;;;;14.55;7.30;;;;;;;;;;5025019;28;20022;-86
2021/07/21 02:02:13;;;;;;;11.85;7.43;;;;;;;;;;5026863;28;20076;-85
2021/07/21 02:04:40;;;;;;;9.25;6.75;;;;;;;;;;5022337;28;20089;-85
2021/07/21 02:07:08;;;;;;;12.75;7.00;;;;;;;;;;5023134;28;20022;-86
2021/07/21 02:09:34;;;;;;;10.55;6.90;;;;;;;;;;5022573;28;20026;-85
2021/07/21 02:12:00;;;;;;;12.80;6.55;;;;;;;;;;5028362;28;20033;-84
2021/07/21 02:14:25;;;;;;;14.82;7.05;;;;;;;;;;5023573;28;20029;-85
2021/07/21 02:16:52;;;;;;;13.32;6.68;;;;;;;;;;5020959;28;20501;-84
2021/07/21 02:19:18;;;;;;;14.07;6.60;;;;;;;;;;5023025;28;20026;-84
2021/07/21 02:21:44;;;;;;;15.68;7.07;;;;;;;;;;5022544;28;20048;-85
2021/07/21 02:24:11;;;;;;;10.27;6.50;;;;;;;;;;5023969;28;20030;-86
2021/07/21 02:26:38;;;;;;;10.43;6.32;;;;;;;;;;5023711;28;20105;-85
2021/07/21 02:29:05;;;;;;;12.68;7.03;;;;;;;;;;5023521;28;20083;-85
2021/07/21 02:31:36;;;;;;;10.85;6.57;;;;;;;;;;5024861;28;20037;-86
2021/07/21 02:34:03;;;;;;;11.32;6.50;;;;;;;;;;5023924;28;20033;-87
2021/07/21 02:36:30;;;;;;;12.15;7.55;;;;;;;;;;5024357;28;20091;-85
2021/07/21 02:38:55;;;;;;;11.77;6.45;;;;;;;;;;5023760;28;20478;-86
2021/07/21 02:41:21;;;;;;;9.77;6.90;;;;;;;;;;5022928;28;20072;-85
2021/07/21 02:43:47;;;;;;;11.27;7.32;;;;;;;;;;5027304;28;20026;-86
2021/07/21 02:46:13;;;;;;;12.48;7.20;;;;;;;;;;5026542;28;20022;-84
2021/07/21 02:48:41;;;;;;;11.05;7.10;;;;;;;;;;5027969;28;20018;-86
2021/07/21 02:51:19;;;;;;;16.95;9.63;;;;;;;;;;5027100;28;20064;-84
2021/07/21 02:53:52;;;;;;;11.88;6.93;;;;;;;;;;5027301;28;20021;-85
2021/07/21 02:56:20;;;;;;;10.82;7.45;;;;;;;;;;5027075;28;20026;-84
2021/07/21 02:58:53;;;;;;;12.02;6.50;;;;;;;;;;5032613;28;20539;-83
2021/07/21 03:01:21;;;;;;;11.60;6.50;;;;;;;;;;5035073;28;20022;-85
2021/07/21 03:03:49;;;;;;;13.38;7.07;;;;;;;;;;5027977;28;20098;-85
2021/07/21 03:06:18;;;;;;;12.23;7.38;;;;;;;;;;5027194;28;20018;-85
2021/07/21 03:08:45;;;;;;;11.90;7.03;;;;;;;;;;5027675;28;20022;-87
2021/07/21 03:11:12;;;;;;;11.68;7.50;;;;;;;;;;5026456;28;20175;-86
2021/07/21 03:13:40;;;;;;;13.48;6.85;;;;;;;;;;5027572;28;20042;-86
2021/07/21 03:16:07;;;;;;;13.00;7.40;;;;;;;;;;5027084;28;20022;-84
2021/07/21 03:18:32;;;;;;;11.43;6.88;;;;;;;;;;5032973;28;20025;-84
2021/07/21 03:20:59;;;;;;;14.73;7.15;;;;;;;;;;5028330;28;20056;-85
2021/07/21 03:23:27;;;;;;;13.05;7.13;;;;;;;;;;5027281;28;20402;-85
2021/07/21 03:25:55;;;;;;;9.75;6.57;;;;;;;;;;5027845;28;20025;-85
2021/07/21 03:28:24;;;;;;;10.00;6.22;;;;;;;;;;5026860;28;20030;-86
2021/07/21 03:30:50;;;;;;;10.55;6.40;;;;;;;;;;5025725;28;20477;-84
2021/07/21 03:33:18;;;;;;;10.13;6.55;;;;;;;;;;5024690;28;20049;-86
2021/07/21 03:35:43;;;;;;;13.60;7.47;;;;;;;;;;5027160;28;20018;-85
2021/07/21 03:38:09;;;;;;;12.77;7.13;;;;;;;;;;5027621;28;20378;-84
2021/07/21 03:40:36;;;;;;;13.13;7.30;;;;;;;;;;5030436;28;20049;-84
2021/07/21 03:43:02;;;;;;;10.25;6.82;;;;;;;;;;5028160;28;20030;-84
2021/07/21 03:45:30;;;;;;;16.73;7.28;;;;;;;;;;5027555;28;20049;-84
2021/07/21 03:47:57;;;;;;;17.05;7.93;;;;;;;;;;5025005;28;20077;-85
2021/07/21 03:50:23;;;;;;;17.05;8.00;;;;;;;;;;5026216;28;20112;-86
2021/07/21 03:52:50;;;;;;;13.82;8.00;;;;;;;;;;5026050;28;20101;-84
2021/07/21 03:55:17;;;;;;;12.60;7.40;;;;;;;;;;5026575;28;20026;-86
2021/07/21 03:57:43;;;;;;;11.80;7.95;;;;;;;;;;5025229;28;20018;-85
2021/07/21 04:00:17;;;;;;;16.90;8.13;;;;;;;;;;5026959;28;20100;-86
2021/07/21 04:02:46;;;;;;;12.82;6.95;;;;;;;;;;5026430;28;20032;-85
2021/07/21 04:05:14;;;;;;;14.57;8.52;;;;;;;;;;5026638;28;20040;-86
2021/07/21 04:07:41;;;;;;;14.18;8.40;;;;;;;;;;5027733;28;20026;-86
2021/07/21 04:10:08;;;;;;;14.38;9.02;;;;;;;;;;5027728;28;20088;-88
2021/07/21 04:12:35;;;;;;;13.48;8.35;;;;;;;;;;5027750;28;20034;-86
2021/07/21 04:15:02;;;;;;;12.30;7.85;;;;;;;;;;5028367;28;20074;-87
2021/07/21 04:17:31;;;;;;;15.18;8.50;;;;;;;;;;5033838;28;20034;-86
2021/07/21 04:20:00;;;;;;;15.57;8.52;;;;;;;;;;5028557;28;20053;-85
2021/07/21 04:22:26;;;;;;;14.95;8.20;;;;;;;;;;5027947;28;20029;-86
2021/07/21 04:24:52;;;;;;;15.48;9.18;;;;;;;;;;5027264;28;20022;-85
2021/07/21 04:27:19;;;;;;;16.38;8.93;;;;;;;;;;5027589;28;20045;-85
2021/07/21 04:29:46;;;;;;;14.57;8.30;;;;;;;;;;5027720;28;20474;-86
2021/07/21 04:32:13;;;;;;;16.98;8.85;;;;;;;;;;5026945;28;20037;-84
2021/07/21 04:34:40;;;;;;;17.15;8.40;;;;;;;;;;5028730;28;20028;-85
2021/07/21 04:37:06;;;;;;;17.08;8.50;;;;;;;;;;5034100;28;20042;-84
2021/07/21 04:39:32;;;;;;;16.70;9.15;;;;;;;;;;5030671;28;20030;-86
2021/07/21 04:41:58;;;;;;;15.70;8.65;;;;;;;;;;5027951;28;20030;-86
2021/07/21 04:44:24;;;;;;;16.27;8.77;;;;;;;;;;5028101;28;20047;-86
2021/07/21 04:46:53;;;;;;;16.98;9.38;;;;;;;;;;5028650;28;20028;-85
2021/07/21 04:49:22;;;;;;;15.45;9.57;;;;;;;;;;5026870;28;20430;-85
2021/07/21 04:51:48;;;;;;;17.27;10.32;;;;;;;;;;5025636;28;20075;-85
2021/07/21 04:54:15;;;;;;;17.83;9.90;;;;;;;;;;5027270;28;20026;-85
2021/07/21 04:56:40;;;;;;;17.45;10.88;;;;;;;;;;5027250;28;20062;-86
2021/07/21 04:59:06;;;;;;;19.55;11.35;;;;;;;;;;5025963;28;20036;-86
2021/07/21 05:01:34;;;;;;;21.70;11.40;;;;;;;;;;5022980;28;20022;-84
2021/07/21 05:04:00;;;;;;;20.33;10.55;;;;;;;;;;5021989;28;20045;-86
2021/07/21 05:06:25;;;;;;;20.13;11.70;;;;;;;;;;5024473;28;20099;-86
2021/07/21 05:08:51;;;;;;;19.23;10.40;;;;;;;;;;5024639;28;20425;-86
2021/07/21 05:11:20;;;;;;;17.85;10.73;;;;;;;;;;5023905;28;20056;-86
2021/07/21 05:13:45;;;;;;;19.98;10.07;;;;;;;;;;5024061;28;20033;-87
2021/07/21 05:16:11;;;;;;;19.42;10.43;;;;;;;;;;5029227;28;20036;-86
2021/07/21 05:18:37;;;;;;;21.27;10.48;;;;;;;;;;5027464;28;20080;-86
2021/07/21 05:21:04;;;;;;;20.33;10.50;;;;;;;;;;5026369;28;20037;-86
2021/07/21 05:23:30;;;;;;;21.95;10.95;;;;;;;;;;5026129;28;20029;-86
2021/07/21 05:25:55;;;;;;;22.45;10.80;;;;;;;;;;5026585;28;20049;-86
2021/07/21 05:28:21;;;;;;;22.58;12.23;;;;;;;;;;5026959;28;20026;-86
2021/07/21 05:30:46;;;;;;;16.38;10.50;;;;;;;;;;5033233;28;20074;-85
2021/07/21 05:33:12;;;;;;;16.58;10.40;;;;;;;;;;5028743;28;20030;-85
2021/07/21 05:35:39;;;;;;;21.40;11.25;;;;;;;;;;5026838;28;20072;-86
2021/07/21 05:38:05;;;;;;;22.65;11.50;;;;;;;;;;5025992;28;20056;-85
2021/07/21 05:40:30;;;;;;;17.20;10.70;;;;;;;;;;5027743;28;20026;-85
2021/07/21 05:42:55;;;;;;;16.83;10.52;;;;;;;;;;5026421;28;20084;-85
2021/07/21 05:45:21;;;;;;;20.92;10.88;;;;;;;;;;5023965;28;20022;-84
2021/07/21 05:47:46;;;;;;;19.13;10.88;;;;;;;;;;5019374;28;20085;-84
2021/07/21 05:50:12;;;;;;;20.50;11.32;;;;;;;;;;5017486;28;20021;-85
2021/07/21 05:52:37;;;;;;;17.30;9.80;;;;;;;;;;5017403;28;20022;-83
2021/07/21 05:55:04;;;;;;;20.23;11.32;;;;;;;;;;5017854;28;20036;-84
2021/07/21 05:57:29;;;;;;;17.95;9.95;;;;;;;;;;5016521;28;20022;-84
2021/07/21 05:59:55;;;;;;;19.00;10.30;;;;;;;;;;5016998;28;20052;-83
2021/07/21 06:02:20;;;;;;;20.65;11.63;;;;;;;;;;5015642;28;20018;-83
2021/07/21 06:04:45;;;;;;;20.05;11.38;;;;;;;;;;5018491;28;20072;-84
2021/07/21 06:07:12;;;;;;;20.58;11.13;;;;;;;;;;5021606;28;20037;-83
2021/07/21 06:09:37;;;;;;;21.05;10.63;;;;;;;;;;5021822;28;20045;-82
2021/07/21 06:12:03;;;;;;;21.70;10.10;;;;;;;;;;5026273;28;20026;-84
2021/07/21 06:14:29;;;;;;;24.30;10.57;;;;;;;;;;5031767;28;20052;-84
2021/07/21 06:16:54;;;;;;;20.80;10.85;;;;;;;;;;5025161;28;20116;-84
2021/07/21 06:19:20;;;;;;;27.05;12.90;;;;;;;;;;5028275;28;20508;-84
2021/07/21 06:21:45;;;;;;;22.52;11.27;;;;;;;;;;5017459;28;20038;-84
2021/07/21 06:24:11;;;;;;;19.60;10.93;;;;;;;;;;5025584;28;20034;-84
2021/07/21 06:26:36;;;;;;;25.75;10.43;;;;;;;;;;5018993;28;20499;-84
2021/07/21 06:29:02;;;;;;;19.50;10.68;;;;;;;;;;5019838;28;20033;-86
2021/07/21 06:31:27;;;;;;;20.00;10.15;;;;;;;;;;5017918;28;20026;-85
2021/07/21 06:33:52;;;;;;;22.77;11.88;;;;;;;;;;5019451;28;20056;-84
2021/07/21 06:36:18;;;;;;;24.98;10.50;;;;;;;;;;5018795;28;20088;-84
2021/07/21 06:38:43;;;;;;;19.27;10.20;;;;;;;;;;5018768;28;20396;-84
2021/07/21 06:41:08;;;;;;;21.02;10.60;;;;;;;;;;5018783;28;20017;-84
2021/07/21 06:43:34;;;;;;;20.58;10.38;;;;;;;;;;5020091;28;20044;-84
2021/07/21 06:45:59;;;;;;;18.88;10.68;;;;;;;;;;5019683;28;20500;-84
2021/07/21 06:48:25;;;;;;;23.08;11.95;;;;;;;;;;5017346;28;20029;-84
2021/07/21 06:50:50;;;;;;;15.68;9.55;;;;;;;;;;5018049;28;20036;-84
2021/07/21 06:53:15;;;;;;;17.42;10.10;;;;;;;;;;5018902;28;20493;-84
2021/07/21 06:55:41;;;;;;;22.02;10.85;;;;;;;;;;5022151;28;20057;-85
2021/07/21 06:58:08;;;;;;;22.95;11.38;;;;;;;;;;5020100;28;20100;-84
2021/07/21 07:00:33;;;;;;;23.17;11.23;;;;;;;;;;5018339;28;20105;-84
2021/07/21 07:02:59;;;;;;;20.02;9.90;;;;;;;;;;5021984;28;20474;-86
2021/07/21 07:05:24;;;;;;;19.25;10.23;;;;;;;;;;5018710;28;20032;-85
2021/07/21 07:07:49;;;;;;;16.30;9.70;;;;;;;;;;5018400;28;20025;-85
2021/07/21 07:10:18;;;;;;;18.67;9.88;;;;;;;;;;5016536;28;20033;-85
2021/07/21 07:12:43;;;;;;;17.10;9.95;;;;;;;;;;5017697;28;20054;-85
2021/07/21 07:15:09;;;;;;;20.02;10.50;;;;;;;;;;5018210;28;20026;-85
2021/07/21 07:17:34;;;;;;;16.45;9.60;;;;;;;;;;5017704;28;20029;-85
2021/07/21 07:20:00;;;;;;;21.95;9.68;;;;;;;;;;5017317;28;20022;-85
2021/07/21 07:22:27;;;;;;;18.23;9.63;;;;;;;;;;5017318;28;20113;-85
2021/07/21 07:24:52;;;;;;;20.55;9.68;;;;;;;;;;5018201;28;20030;-85
2021/07/21 07:27:17;;;;;;;16.45;9.57;;;;;;;;;;5017920;28;20044;-85
2021/07/21 07:29:43;;;;;;;15.60;9.32;;;;;;;;;;5018732;28;20397;-85
2021/07/21 07:32:09;;;;;;;17.75;9.35;;;;;;;;;;5019764;28;20101;-85
2021/07/21 07:34:34;;;;;;;18.77;10.00;;;;;;;;;;5017283;28;20110;-85
2021/07/21 07:36:59;;;;;;;13.50;9.20;;;;;;;;;;5017199;28;20098;-85
2021/07/21 07:39:25;;;;;;;17.83;9.52;;;;;;;;;;5021446;28;20033;-85
2021/07/21 07:41:50;;;;;;;16.70;9.63;;;;;;;;;;5018572;28;20026;-85
2021/07/21 07:44:16;;;;;;;13.60;8.25;;;;;;;;;;5026658;28;20470;-85
2021/07/21 07:46:41;;;;;;;16.52;8.45;;;;;;;;;;5020378;28;20029;-85
2021/07/21 07:49:07;;;;;;;17.50;9.30;;;;;;;;;;5028644;28;20036;-86
2021/07/21 07:51:34;;;;;;;14.15;8.82;;;;;;;;;;5034992;28;20458;-85
2021/07/21 07:54:02;;;;;;;17.75;9.32;;;;;;;;;;5027164;28;20026;-86
2021/07/21 07:56:28;;;;;;;15.77;7.93;;;;;;;;;;5023005;28;20037;-85
2021/07/21 07:58:53;;;;;;;14.05;8.77;;;;;;;;;;5028409;28;20022;-85
2021/07/21 08:01:19;;;;;;;18.38;8.57;;;;;;;;;;5033500;28;20018;-85
2021/07/21 08:03:44;;;;;;;23.90;8.90;;;;;;;;;;5025185;28;20104;-85
2021/07/21 08:06:10;;;;;;;16.15;8.68;;;;;;;;;;5023605;28;20025;-84
2021/07/21 08:08:35;;;;;;;15.48;8.50;;;;;;;;;;5027459;28;20026;-86
2021/07/21 08:11:03;;;;;;;15.80;8.02;;;;;;;;;;5030546;28;20077;-84
2021/07/21 08:13:29;;;;;;;15.00;7.43;;;;;;;;;;5024876;28;20026;-85
2021/07/21 08:15:55;;;;;;;14.50;7.82;;;;;;;;;;5028022;28;20033;-85
2021/07/21 08:18:21;;;;;;;14.15;7.38;;;;;;;;;;5032178;28;20026;-84
2021/07/21 08:20:46;;;;;;;14.73;7.57;;;;;;;;;;5029713;28;20057;-84
2021/07/21 08:23:12;;;;;;;18.35;7.50;;;;;;;;;;5028870;28;20030;-84
2021/07/21 08:25:38;;;;;;;14.18;7.70;;;;;;;;;;5022370;28;20025;-85
2021/07/21 08:28:04;;;;;;;12.10;7.00;;;;;;;;;;5025918;28;20056;-85
2021/07/21 08:30:30;;;;;;;12.80;7.53;;;;;;;;;;5027887;28;20082;-85
2021/07/21 08:32:57;;;;;;;17.42;8.07;;;;;;;;;;5030373;28;20026;-85
2021/07/21 08:35:28;;;;;;;13.25;6.63;;;;;;;;;;5022455;28;20033;-86
2021/07/21 08:37:53;;;;;;;18.27;7.65;;;;;;;;;;5018522;28;20049;-85
2021/07/21 08:40:20;;;;;;;12.82;7.68;;;;;;;;;;5017141;28;20405;-85
2021/07/21 08:42:46;;;;;;;13.93;7.32;;;;;;;;;;5017725;28;20030;-85
2021/07/21 08:45:13;;;;;;;10.43;6.80;;;;;;;;;;5018324;28;20037;-85
2021/07/21 08:47:39;;;;;;;13.63;7.35;;;;;;;;;;5016447;28;20072;-85
2021/07/21 08:50:07;;;;;;;16.25;7.50;;;;;;;;;;5020575;28;20026;-86
2021/07/21 08:52:33;;;;;;;12.25;7.32;;;;;;;;;;5018369;28;20029;-85
2021/07/21 08:55:01;;;;;;;18.38;7.60;;;;;;;;;;5019042;28;20037;-85
2021/07/21 08:57:32;;;;;;;13.55;7.47;;;;;;;;;;5018627;28;20025;-86
2021/07/21 08:59:59;;;;;;;12.82;7.63;;;;;;;;;;5018631;28;20049;-85
2021/07/21 09:02:25;;;;;;;10.18;6.30;;;;;;;;;;5017503;28;20025;-86
2021/07/21 09:04:51;;;;;;;12.25;7.22;;;;;;;;;;5017960;28;20057;-85
2021/07/21 09:07:17;;;;;;;11.05;6.53;;;;;;;;;;5017579;28;20068;-85
2021/07/21 09:09:42;;;;;;;11.45;6.90;;;;;;;;;;5020183;28;20045;-85
2021/07/21 09:12:08;;;;;;;13.00;6.68;;;;;;;;;;5017766;28;20067;-85
2021/07/21 09:14:34;;;;;;;11.25;6.57;;;;;;;;;;5017412;28;20105;-85
2021/07/21 09:17:11;;;;;;;15.50;6.80;;;;;;;;;;5016563;28;20115;-85
2021/07/21 09:19:41;;;;;;;13.10;6.85;;;;;;;;;;5016456;28;20397;-85
2021/07/21 09:22:37;;;;;;;13.70;6.93;;;;;;;;;;5018430;28;20026;-85
2021/07/21 09:25:15;;;;;;;11.05;6.65;;;;;;;;;;5015242;28;20038;-85
2021/07/21 09:27:46;;;;;;;10.85;6.95;;;;;;;;;;5028547;28;20038;-85
2021/07/21 09:30:16;;;;;;;12.23;6.97;;;;;;;;;;5026065;28;20500;-85
2021/07/21 09:33:02;;;;;;;13.52;7.70;;;;;;;;;;5018382;28;20104;-85
2021/07/21 09:35:51;;;;;;;12.95;6.90;;;;;;;;;;5019166;28;20030;-85
2021/07/21 09:38:22;;;;;;;9.93;6.72;;;;;;;;;;5016231;28;20045;-85
2021/07/21 09:40:51;;;;;;;12.10;7.63;;;;;;;;;;5015153;28;20037;-85
2021/07/21 09:43:22;;;;;;;13.70;7.45;;;;;;;;;;5016314;28;20037;-85
2021/07/21 09:45:49;;;;;;;13.60;6.93;;;;;;;;;;5017926;28;20473;-85
2021/07/21 09:48:15;;;;;;;11.82;7.22;;;;;;;;;;5017418;28;20041;-85
2021/07/21 09:50:44;;;;;;;12.95;7.18;;;;;;;;;;5018109;28;20022;-85
2021/07/21 09:53:12;;;;;;;12.65;6.82;;;;;;;;;;5021157;28;20026;-85
2021/07/21 09:55:39;;;;;;;13.32;7.55;;;;;;;;;;5021877;28;20025;-85
2021/07/21 09:58:08;;;;;;;14.60;8.40;;;;;;;;;;5028947;28;20066;-85
2021/07/21 10:00:38;;;;;;;18.02;8.13;;;;;;;;;;5021570;28;20026;-85
2021/07/21 10:03:16;;;;;;;11.95;7.28;;;;;;;;;;5019927;28;20021;-85
2021/07/21 10:06:00;;;;;;;13.40;7.07;;;;;;;;;;5020027;28;20042;-85
2021/07/21 10:08:43;;;;;;;10.88;6.93;;;;;;;;;;5019568;28;20022;-86
2021/07/21 10:11:32;;;;;;;11.75;7.47;;;;;;;;;;5025590;28;20092;-85
2021/07/21 10:14:00;;;;;;;11.88;8.02;;;;;;;;;;5021301;28;20108;-85
2021/07/21 10:16:32;;;;;;;12.77;6.82;;;;;;;;;;5020640;28;20061;-85
2021/07/21 10:19:04;;;;;;;11.00;6.60;;;;;;;;;;5020948;28;20543;-85
2021/07/21 10:21:30;;;;;;;12.05;6.75;;;;;;;;;;5020992;28;20030;-85
2021/07/21 10:23:56;;;;;;;10.20;6.60;;;;;;;;;;5017896;28;20405;-85
2021/07/21 10:26:22;;;;;;;11.05;6.35;;;;;;;;;;5018914;28;20034;-85
2021/07/21 10:28:48;;;;;;;10.63;5.75;;;;;;;;;;5019076;28;20037;-85
2021/07/21 10:31:14;;;;;;;13.10;7.00;;;;;;;;;;5019803;28;20054;-85
2021/07/21 10:33:40;;;;;;;9.25;6.72;;;;;;;;;;5016784;28;20030;-85
2021/07/21 10:36:05;;;;;;;10.45;6.47;;;;;;;;;;5018084;28;20034;-85
2021/07/21 10:38:31;;;;;;;11.00;6.13;;;;;;;;;;5020704;28;20077;-85
2021/07/21 10:40:57;;;;;;;11.50;5.88;;;;;;;;;;5022702;28;20022;-85
2021/07/21 10:43:27;;;;;;;13.98;7.50;;;;;;;;;;5025080;28;20086;-85
2021/07/21 10:45:52;;;;;;;12.20;6.43;;;;;;;;;;5022008;28;20021;-84
2021/07/21 10:48:27;;;;;;;11.45;6.18;;;;;;;;;;5019181;28;20022;-85
2021/07/21 10:51:08;;;;;;;11.70;6.03;;;;;;;;;;5017659;28;20432;-85
2021/07/21 10:53:47;;;;;;;11.43;6.20;;;;;;;;;;5028431;28;20101;-84
2021/07/21 10:59:21;;;;;;;12.88;8.15;;;;;;;;;;5020675;28;20032;-85
2021/07/21 11:02:00;;;;;;;12.50;5.63;;;;;;;;;;5020082;28;20025;-84
2021/07/21 11:04:41;;;;;;;11.77;5.65;;;;;;;;;;5030816;28;20025;-84
2021/07/21 11:07:07;;;;;;;11.02;6.50;;;;;;;;;;5032035;28;20029;-85
2021/07/21 11:09:34;;;;;;;14.98;6.40;;;;;;;;;;5024872;28;20032;-83
2021/07/21 11:12:00;;;;;;;11.32;6.65;;;;;;;;;;5035838;28;20022;-84
2021/07/21 11:14:29;;;;;;;11.65;6.22;;;;;;;;;;5036104;28;20409;-84
2021/07/21 11:17:09;;;;;;;11.18;6.53;;;;;;;;;;5021733;28;20029;-86
2021/07/21 11:19:51;;;;;;;8.65;6.00;;;;;;;;;;5021473;28;20026;-84
2021/07/21 11:22:19;;;;;;;11.03;6.60;;;;;;;;;;5019718;28;20033;-83
2021/07/21 11:25:18;;;;;;;11.13;6.72;;;;;;;;;;5018445;28;20401;-83
2021/07/21 11:28:02;;;;;;;10.48;6.40;;;;;;;;;;5019051;28;20029;-83
2021/07/21 11:30:47;;;;;;;12.77;6.88;;;;;;;;;;5020570;28;20451;-85
2021/07/21 11:33:54;;;;;;;14.75;6.40;;;;;;;;;;5019387;28;20030;-84
2021/07/21 11:36:38;;;;;;;11.10;6.18;;;;;;;;;;5017507;28;20053;-83
2021/07/21 11:39:03;;;;;;;11.40;6.40;;;;;;;;;;5017583;28;20025;-85
2021/07/21 11:41:43;;;;;;;15.38;7.03;;;;;;;;;;5021686;28;20038;-84
2021/07/21 11:44:09;;;;;;;12.35;7.57;;;;;;;;;;5018296;28;20112;-84
2021/07/21 11:46:36;;;;;;;13.73;6.93;;;;;;;;;;5016820;28;20476;-84
2021/07/21 11:49:02;;;;;;;19.10;6.45;;;;;;;;;;5022368;28;20032;-84
2021/07/21 11:51:27;;;;;;;13.60;7.13;;;;;;;;;;5019411;28;20448;-84
2021/07/21 11:53:53;;;;;;;13.75;6.43;;;;;;;;;;5016693;28;20026;-84
2021/07/21 11:56:20;;;;;;;10.93;6.72;;;;;;;;;;5018334;28;20500;-84
2021/07/21 11:58:45;;;;;;;12.48;7.10;;;;;;;;;;5018488;28;20029;-84
2021/07/21 12:01:10;;;;;;;14.20;6.78;;;;;;;;;;5017146;28;20033;-84
2021/07/21 12:03:46;;;;;;;11.13;6.65;;;;;;;;;;5016720;28;20034;-84
2021/07/21 12:06:22;;;;;;;9.95;6.07;;;;;;;;;;5020293;28;20497;-83
2021/07/21 12:08:55;;;;;;;11.13;6.68;;;;;;;;;;5026428;28;20025;-84
2021/07/21 12:11:27;;;;;;;17.65;7.75;;;;;;;;;;5021668;28;20112;-84
2021/07/21 12:14:03;;;;;;;11.53;6.50;;;;;;;;;;5022966;28;20049;-84
2021/07/21 12:16:36;;;;;;;12.25;6.75;;;;;;;;;;5022038;28;20029;-84
2021/07/21 12:19:04;;;;;;;10.82;6.25;;;;;;;;;;5017410;28;20493;-84
2021/07/21 12:21:33;;;;;;;14.15;7.28;;;;;;;;;;5018861;28;20061;-84
2021/07/21 12:24:00;;;;;;;14.02;6.57;;;;;;;;;;5018075;28;20036;-84
2021/07/21 12:26:43;;;;;;;11.20;6.57;;;;;;;;;;5017173;28;20026;-84
2021/07/21 12:29:09;;;;;;;12.93;7.25;;;;;;;;;;5018863;28;20116;-84
2021/07/21 12:31:34;;;;;;;13.18;6.43;;;;;;;;;;5017083;28;20068;-84
2021/07/21 12:34:10;;;;;;;13.77;6.90;;;;;;;;;;5015419;28;20114;-84
2021/07/21 12:36:46;;;;;;;17.13;7.47;;;;;;;;;;5116441;27;20388;-84
2021/07/21 12:39:13;;;;;;;10.20;6.40;;;;;;;;;;5116302;28;20028;-85
2021/07/21 12:41:39;;;;;;;11.10;7.57;;;;;;;;;;5121542;28;20027;-85
2021/07/21 12:44:19;;;;;;;13.43;7.47;;;;;;;;;;5123860;28;20027;-85
2021/07/21 12:46:45;;;;;;;13.23;7.25;;;;;;;;;;5118315;28;20032;-84
2021/07/21 12:49:11;;;;;;;11.77;6.90;;;;;;;;;;5114929;28;20023;-85
2021/07/21 12:51:37;;;;;;;16.13;7.45;;;;;;;;;;5119832;28;20141;-84
2021/07/21 12:54:03;;;;;;;12.32;6.57;;;;;;;;;;5114209;28;20402;-85
2021/07/21 12:56:28;;;;;;;11.73;7.22;;;;;;;;;;5112972;28;20015;-85
2021/07/21 12:59:05;;;;;;;14.15;6.65;;;;;;;;;;5115213;28;20043;-86
2021/07/21 13:01:30;;;;;;;16.85;7.07;;;;;;;;;;5112241;28;20030;-86
2021/07/21 13:03:55;;;;;;;14.52;7.72;;;;;;;;;;5112833;28;20027;-86
2021/07/21 13:06:24;;;;;;;12.50;7.28;;;;;;;;;;5112519;28;20026;-85
2021/07/21 13:08:50;;;;;;;14.43;7.55;;;;;;;;;;5113235;28;20073;-86
2021/07/21 13:11:15;;;;;;;11.43;7.15;;;;;;;;;;5116095;28;20024;-85
2021/07/21 13:13:54;;;;;;;13.52;6.88;;;;;;;;;;5113106;28;20034;-85
2021/07/21 13:16:33;;;;;;;12.13;7.00;;;;;;;;;;5112161;28;20432;-85
2021/07/21 13:19:04;;;;;;;13.77;7.22;;;;;;;;;;5110078;28;20035;-85
2021/07/21 13:21:35;;;;;;;11.40;6.65;;;;;;;;;;5111481;28;20486;-86
2021/07/21 13:24:11;;;;;;;11.95;6.95;;;;;;;;;;5110299;28;20050;-85
2021/07/21 13:26:38;;;;;;;14.85;7.18;;;;;;;;;;5117214;28;20016;-84
2021/07/21 13:29:12;;;;;;;12.35;7.10;;;;;;;;;;5113156;28;20030;-84
2021/07/21 13:31:41;;;;;;;9.50;6.55;;;;;;;;;;5112885;28;20024;-85
2021/07/21 13:34:30;;;;;;;14.68;6.80;;;;;;;;;;5113383;28;20436;-85
2021/07/21 13:36:57;;;;;;;15.45;6.63;;;;;;;;;;5121850;28;20127;-85
2021/07/21 13:39:24;;;;;;;9.50;6.75;;;;;;;;;;5121630;28;20024;-85
2021/07/21 13:41:57;;;;;;;10.10;6.60;;;;;;;;;;5121216;28;20035;-85
2021/07/21 13:44:28;;;;;;;13.82;6.50;;;;;;;;;;5117321;28;20490;-85
2021/07/21 13:46:59;;;;;;;10.50;6.28;;;;;;;;;;5107346;28;20024;-85
2021/07/21 13:49:43;;;;;;;14.00;6.60;;;;;;;;;;5097569;28;20148;-85
2021/07/21 13:52:11;;;;;;;11.57;6.82;;;;;;;;;;5097510;28;20051;-85
2021/07/21 13:54:38;;;;;;;19.95;7.65;;;;;;;;;;5096334;28;20030;-85
2021/07/21 13:57:08;;;;;;;12.75;6.93;;;;;;;;;;5099994;28;20188;-85
2021/07/21 13:59:35;;;;;;;11.23;6.70;;;;;;;;;;5098188;28;20475;-86
2021/07/21 14:02:02;;;;;;;12.25;6.88;;;;;;;;;;5097342;28;20085;-85
2021/07/21 14:04:28;;;;;;;16.02;6.90;;;;;;;;;;5097141;28;20566;-85
2021/07/21 14:06:54;;;;;;;9.77;6.53;;;;;;;;;;5097127;28;20027;-85
2021/07/21 14:09:20;;;;;;;7.93;6.05;;;;;;;;;;5097877;28;20055;-85
2021/07/21 14:11:47;;;;;;;14.88;7.22;;;;;;;;;;5097873;28;20501;-85
2021/07/21 14:14:13;;;;;;;15.38;7.40;;;;;;;;;;5097952;28;20032;-86
2021/07/21 14:16:39;;;;;;;13.15;6.53;;;;;;;;;;5102121;28;20456;-85
2021/07/21 14:19:05;;;;;;;14.05;6.78;;;;;;;;;;5106871;28;20051;-85
2021/07/21 14:21:32;;;;;;;10.23;6.80;;;;;;;;;;5115131;28;20050;-86
2021/07/21 14:23:58;;;;;;;13.85;6.78;;;;;;;;;;5101322;28;20058;-85
2021/07/21 14:26:30;;;;;;;13.68;6.35;;;;;;;;;;5101156;28;20024;-84
2021/07/21 14:28:56;;;;;;;12.07;6.97;;;;;;;;;;5100945;28;20027;-85
2021/07/21 14:31:22;;;;;;;13.48;7.43;;;;;;;;;;5100731;28;20024;-85
2021/07/21 14:33:49;;;;;;;11.85;6.15;;;;;;;;;;5100699;28;20028;-85
2021/07/21 14:36:15;;;;;;;10.80;6.50;;;;;;;;;;5098602;28;20444;-85
2021/07/21 14:38:41;;;;;;;9.88;6.45;;;;;;;;;;5099405;28;20052;-85
2021/07/21 14:41:07;;;;;;;9.27;6.28;;;;;;;;;;5098649;28;20020;-86
2021/07/21 14:43:35;;;;;;;9.20;6.47;;;;;;;;;;5096482;28;20020;-86